Ashland, VA (23005)

1:02 AM EDT on August 31, 2016 (GMT -0400)
Ashland | | Change Station

Elev 210 ft 37.75 °N, 77.48 °W | Updated 2 minutes ago

Clear
Clear
71.6 °F
Feels Like 71.6 °F
N
0.0
Wind Variable Wind from North
Gusts 0.0 mph

Today
High -- | Low -- °F
--% Chance of Precip.
Yesterday
High -- | Low -- °F
Precip. -- in
Pressure 30.05 in
Visibility 6.0 miles
Clouds Clear
Dew Point 69 °F
Humidity 92%
Rainfall 0.00 in
Snow Depth Not available.
6:39 AM 7:39 PM
Waning Crescent, 1% visible
METAR KOFP 310454Z AUTO 00000KT 6SM BR CLR 21/19 A3006 RMK AO2 SLP176 T02110194 403330194
Pressure 30.05 in
Visibility 6.0 miles
Clouds Clear
Dew Point 69 °F
Humidity 92%
Rainfall 0.00 in
Snow Depth Not available.
6:39 AM 7:39 PM
Waning Crescent, 1% visible
METAR KOFP 310454Z AUTO 00000KT 6SM BR CLR 21/19 A3006 RMK AO2 SLP176 T02110194 403330194

10-Day Weather Forecast

Almanac

Astronomy

Aug. 31, 2016 Rise Set
Actual Time
Civil Twilight
Nautical Twilight
Astronomical Twilight
Moon
Length of Visible Light
Length of Day
Tomorrow will be .
, % of the Moon is Illuminated

Today's Extremes

State Highs State Lows

Community

WunderPhotos

Upload Photos

1,936,040 photos uploaded!

WunderBlog® & News

Nearby

Air Quality

  Air Quality AQ Index Pollutant
Not available.

Snow Depth

Station Depth Elevation

Earthquake Activity

City Distance Mag. Time & Date
Minimum magnitude displayed is 2.5.

Coastal Water Temperatures

Place Temperature

Stations

Nearby Weather Stations

Station Location Temp. Windchill Dew Point Humidity Wind Precip. Elev Updated Type
                   

Watches & Warnings

There are currently no watches in effect.